sensor_id;sensor_type;location;lat;lon;timestamp;pressure;altitude;pressure_sealevel;temperature;humidity
77153;BME280;66124;51.146;17.072;2023-05-28T00:00:11;100764.05;;;11.17;52.78
77153;BME280;66124;51.146;17.072;2023-05-28T00:03:00;100761.81;;;11.15;52.63
77153;BME280;66124;51.146;17.072;2023-05-28T00:05:30;100758.72;;;11.13;52.60
77153;BME280;66124;51.146;17.072;2023-05-28T00:07:59;100755.55;;;11.12;52.63
77153;BME280;66124;51.146;17.072;2023-05-28T00:10:29;100753.72;;;11.09;52.78
77153;BME280;66124;51.146;17.072;2023-05-28T00:12:58;100751.95;;;11.06;52.42
77153;BME280;66124;51.146;17.072;2023-05-28T00:15:28;100750.53;;;11.03;52.45
77153;BME280;66124;51.146;17.072;2023-05-28T00:17:57;100750.30;;;11.00;52.37
77153;BME280;66124;51.146;17.072;2023-05-28T00:20:27;100755.04;;;10.98;52.64
77153;BME280;66124;51.146;17.072;2023-05-28T00:22:56;100753.77;;;10.95;52.63
77153;BME280;66124;51.146;17.072;2023-05-28T00:25:26;100750.23;;;10.92;52.58
77153;BME280;66124;51.146;17.072;2023-05-28T00:27:55;100751.34;;;10.90;52.61
77153;BME280;66124;51.146;17.072;2023-05-28T00:30:24;100746.82;;;10.88;52.85
77153;BME280;66124;51.146;17.072;2023-05-28T00:32:54;100748.39;;;10.86;52.64
77153;BME280;66124;51.146;17.072;2023-05-28T00:35:23;100748.06;;;10.84;52.58
77153;BME280;66124;51.146;17.072;2023-05-28T00:37:53;100742.98;;;10.83;52.58
77153;BME280;66124;51.146;17.072;2023-05-28T00:40:22;100741.67;;;10.80;53.03
77153;BME280;66124;51.146;17.072;2023-05-28T00:42:52;100741.92;;;10.78;52.60
77153;BME280;66124;51.146;17.072;2023-05-28T00:45:21;100741.86;;;10.75;52.56
77153;BME280;66124;51.146;17.072;2023-05-28T00:47:51;100738.85;;;10.74;52.55
77153;BME280;66124;51.146;17.072;2023-05-28T00:50:20;100734.84;;;10.72;52.73
77153;BME280;66124;51.146;17.072;2023-05-28T00:52:49;100739.30;;;10.70;52.44
77153;BME280;66124;51.146;17.072;2023-05-28T00:55:16;100737.41;;;10.68;52.60
77153;BME280;66124;51.146;17.072;2023-05-28T01:02:42;100720.89;;;10.62;52.70
77153;BME280;66124;51.146;17.072;2023-05-28T01:05:11;100722.30;;;10.57;52.84
77153;BME280;66124;51.146;17.072;2023-05-28T01:07:41;100724.52;;;10.52;52.81
77153;BME280;66124;51.146;17.072;2023-05-28T01:10:11;100722.11;;;10.49;52.84
77153;BME280;66124;51.146;17.072;2023-05-28T01:12:41;100717.40;;;10.45;53.04
77153;BME280;66124;51.146;17.072;2023-05-28T01:15:12;100713.27;;;10.40;53.14
77153;BME280;66124;51.146;17.072;2023-05-28T01:17:42;100712.34;;;10.35;53.20
77153;BME280;66124;51.146;17.072;2023-05-28T01:20:13;100713.07;;;10.30;53.27
77153;BME280;66124;51.146;17.072;2023-05-28T01:22:50;100712.91;;;10.27;53.18
77153;BME280;66124;51.146;17.072;2023-05-28T01:25:22;100710.70;;;10.23;53.29
77153;BME280;66124;51.146;17.072;2023-05-28T01:27:52;100709.90;;;10.19;53.58
77153;BME280;66124;51.146;17.072;2023-05-28T01:30:22;100704.60;;;10.15;53.42
77153;BME280;66124;51.146;17.072;2023-05-28T01:32:51;100701.33;;;10.11;53.58
77153;BME280;66124;51.146;17.072;2023-05-28T01:35:21;100703.25;;;10.07;53.71
77153;BME280;66124;51.146;17.072;2023-05-28T01:37:51;100703.74;;;10.04;53.84
77153;BME280;66124;51.146;17.072;2023-05-28T01:40:23;100707.59;;;10.01;53.88
77153;BME280;66124;51.146;17.072;2023-05-28T01:42:54;100708.88;;;9.98;54.06
77153;BME280;66124;51.146;17.072;2023-05-28T01:45:24;100704.98;;;9.95;54.21
77153;BME280;66124;51.146;17.072;2023-05-28T01:47:54;100708.41;;;9.92;54.23
77153;BME280;66124;51.146;17.072;2023-05-28T01:50:24;100703.89;;;9.90;54.34
77153;BME280;66124;51.146;17.072;2023-05-28T01:52:53;100701.02;;;9.87;54.32
77153;BME280;66124;51.146;17.072;2023-05-28T01:55:23;100698.16;;;9.84;54.39
77153;BME280;66124;51.146;17.072;2023-05-28T01:57:53;100700.02;;;9.82;54.48
77153;BME280;66124;51.146;17.072;2023-05-28T02:00:22;100695.66;;;9.80;54.61
77153;BME280;66124;51.146;17.072;2023-05-28T02:02:52;100700.45;;;9.78;54.81
77153;BME280;66124;51.146;17.072;2023-05-28T02:05:21;100695.67;;;9.75;54.66
77153;BME280;66124;51.146;17.072;2023-05-28T02:07:51;100692.94;;;9.73;54.42
77153;BME280;66124;51.146;17.072;2023-05-28T02:10:21;100693.37;;;9.70;54.82
77153;BME280;66124;51.146;17.072;2023-05-28T02:12:50;100691.62;;;9.67;54.56
77153;BME280;66124;51.146;17.072;2023-05-28T02:15:19;100686.88;;;9.64;54.43
77153;BME280;66124;51.146;17.072;2023-05-28T02:38:22;100683.08;;;10.32;53.51
77153;BME280;66124;51.146;17.072;2023-05-28T02:40:52;100688.13;;;10.33;53.56
77153;BME280;66124;51.146;17.072;2023-05-28T02:43:21;100686.22;;;10.20;53.59
77153;BME280;66124;51.146;17.072;2023-05-28T02:45:51;100686.30;;;10.08;53.74
77153;BME280;66124;51.146;17.072;2023-05-28T02:48:20;100685.86;;;9.98;53.84
77153;BME280;66124;51.146;17.072;2023-05-28T02:50:50;100689.86;;;9.88;54.07
77153;BME280;66124;51.146;17.072;2023-05-28T02:53:21;100693.64;;;9.77;54.58
77153;BME280;66124;51.146;17.072;2023-05-28T02:55:51;100697.65;;;9.68;55.16
77153;BME280;66124;51.146;17.072;2023-05-28T02:58:20;100695.09;;;9.61;55.33
77153;BME280;66124;51.146;17.072;2023-05-28T03:00:49;100695.14;;;9.54;55.73
77153;BME280;66124;51.146;17.072;2023-05-28T03:03:19;100692.40;;;9.47;56.14
77153;BME280;66124;51.146;17.072;2023-05-28T03:05:49;100697.41;;;9.41;56.29
77153;BME280;66124;51.146;17.072;2023-05-28T03:08:18;100701.08;;;9.36;56.40
77153;BME280;66124;51.146;17.072;2023-05-28T03:10:48;100703.63;;;9.32;56.74
77153;BME280;66124;51.146;17.072;2023-05-28T03:13:17;100707.80;;;9.27;56.66
77153;BME280;66124;51.146;17.072;2023-05-28T03:15:46;100708.64;;;9.24;56.88
77153;BME280;66124;51.146;17.072;2023-05-28T03:18:16;100710.75;;;9.21;56.99
77153;BME280;66124;51.146;17.072;2023-05-28T03:20:45;100711.98;;;9.18;56.97
77153;BME280;66124;51.146;17.072;2023-05-28T03:23:14;100714.16;;;9.18;57.09
77153;BME280;66124;51.146;17.072;2023-05-28T03:25:44;100713.37;;;9.17;57.18
77153;BME280;66124;51.146;17.072;2023-05-28T03:28:13;100695.55;;;9.09;57.22
77153;BME280;66124;51.146;17.072;2023-05-28T03:30:44;100708.84;;;9.17;57.25
77153;BME280;66124;51.146;17.072;2023-05-28T03:33:13;100708.08;;;9.16;57.34
77153;BME280;66124;51.146;17.072;2023-05-28T03:35:43;100709.53;;;9.16;57.48
77153;BME280;66124;51.146;17.072;2023-05-28T03:38:12;100707.48;;;9.17;57.72
77153;BME280;66124;51.146;17.072;2023-05-28T03:40:41;100708.61;;;9.18;57.77
77153;BME280;66124;51.146;17.072;2023-05-28T03:43:11;100706.17;;;9.19;57.93
77153;BME280;66124;51.146;17.072;2023-05-28T03:45:40;100709.18;;;9.21;58.01
77153;BME280;66124;51.146;17.072;2023-05-28T03:48:10;100711.99;;;9.22;58.12
77153;BME280;66124;51.146;17.072;2023-05-28T03:57:24;100715.50;;;9.39;58.60
77153;BME280;66124;51.146;17.072;2023-05-28T03:59:53;100717.73;;;9.43;58.62
77153;BME280;66124;51.146;17.072;2023-05-28T04:02:23;100714.45;;;9.49;58.71
77153;BME280;66124;51.146;17.072;2023-05-28T04:04:52;100714.40;;;9.54;58.37
77153;BME280;66124;51.146;17.072;2023-05-28T04:07:22;100711.48;;;9.60;58.22
77153;BME280;66124;51.146;17.072;2023-05-28T04:09:52;100710.98;;;9.66;58.06
77153;BME280;66124;51.146;17.072;2023-05-28T04:12:22;100710.48;;;9.74;57.99
77153;BME280;66124;51.146;17.072;2023-05-28T04:14:51;100712.42;;;9.82;57.62
77153;BME280;66124;51.146;17.072;2023-05-28T04:17:21;100705.01;;;9.89;57.38
77153;BME280;66124;51.146;17.072;2023-05-28T04:19:52;100699.02;;;9.99;57.10
77153;BME280;66124;51.146;17.072;2023-05-28T04:22:21;100696.29;;;10.08;56.87
77153;BME280;66124;51.146;17.072;2023-05-28T04:24:51;100698.64;;;10.16;56.60
77153;BME280;66124;51.146;17.072;2023-05-28T04:27:21;100702.34;;;10.27;56.58
77153;BME280;66124;51.146;17.072;2023-05-28T04:29:50;100705.95;;;10.37;56.44
77153;BME280;66124;51.146;17.072;2023-05-28T04:32:20;100708.05;;;10.49;55.97
77153;BME280;66124;51.146;17.072;2023-05-28T04:34:49;100710.84;;;10.60;55.57
77153;BME280;66124;51.146;17.072;2023-05-28T04:37:19;100708.67;;;10.71;55.45
77153;BME280;66124;51.146;17.072;2023-05-28T04:39:48;100708.11;;;10.80;55.45
77153;BME280;66124;51.146;17.072;2023-05-28T04:42:18;100708.64;;;10.89;55.39
77153;BME280;66124;51.146;17.072;2023-05-28T04:44:47;100705.91;;;10.99;55.08
77153;BME280;66124;51.146;17.072;2023-05-28T04:47:17;100704.73;;;11.10;55.14
77153;BME280;66124;51.146;17.072;2023-05-28T04:49:46;100704.20;;;11.19;55.08
77153;BME280;66124;51.146;17.072;2023-05-28T04:52:16;100706.96;;;11.28;54.84
77153;BME280;66124;51.146;17.072;2023-05-28T04:54:46;100710.01;;;11.38;54.96
77153;BME280;66124;51.146;17.072;2023-05-28T04:57:15;100707.00;;;11.47;54.56
77153;BME280;66124;51.146;17.072;2023-05-28T04:59:45;100716.66;;;11.61;54.28
77153;BME280;66124;51.146;17.072;2023-05-28T05:02:14;100716.11;;;11.74;54.12
77153;BME280;66124;51.146;17.072;2023-05-28T05:04:43;100715.59;;;11.87;54.14
77153;BME280;66124;51.146;17.072;2023-05-28T05:07:14;100713.03;;;12.01;53.80
77153;BME280;66124;51.146;17.072;2023-05-28T05:09:42;100710.97;;;12.14;53.64
77153;BME280;66124;51.146;17.072;2023-05-28T05:17:32;100716.54;;;12.47;52.74
77153;BME280;66124;51.146;17.072;2023-05-28T05:20:04;100716.92;;;12.59;52.72
77153;BME280;66124;51.146;17.072;2023-05-28T05:22:34;100713.95;;;12.72;52.10
77153;BME280;66124;51.146;17.072;2023-05-28T05:25:04;100711.91;;;12.83;52.19
77153;BME280;66124;51.146;17.072;2023-05-28T05:27:37;100715.98;;;12.90;51.87
77153;BME280;66124;51.146;17.072;2023-05-28T05:30:08;100716.70;;;12.99;51.30
77153;BME280;66124;51.146;17.072;2023-05-28T05:32:38;100713.85;;;13.06;50.83
77153;BME280;66124;51.146;17.072;2023-05-28T05:35:08;100715.87;;;13.19;50.57
77153;BME280;66124;51.146;17.072;2023-05-28T05:37:37;100712.44;;;13.31;50.46
77153;BME280;66124;51.146;17.072;2023-05-28T05:40:08;100710.30;;;13.43;50.26
77153;BME280;66124;51.146;17.072;2023-05-28T05:42:38;100710.97;;;13.55;50.16
77153;BME280;66124;51.146;17.072;2023-05-28T05:45:09;100712.50;;;13.68;49.78
77153;BME280;66124;51.146;17.072;2023-05-28T05:47:38;100709.70;;;13.76;49.13
77153;BME280;66124;51.146;17.072;2023-05-28T05:50:10;100711.25;;;13.81;48.69
77153;BME280;66124;51.146;17.072;2023-05-28T05:52:40;100704.29;;;13.86;48.59
77153;BME280;66124;51.146;17.072;2023-05-28T05:55:10;100707.03;;;13.90;48.28
77153;BME280;66124;51.146;17.072;2023-05-28T05:57:39;100708.36;;;13.93;48.16
77153;BME280;66124;51.146;17.072;2023-05-28T06:00:11;100703.71;;;13.94;48.23
77153;BME280;66124;51.146;17.072;2023-05-28T06:02:41;100701.62;;;14.00;48.18
77153;BME280;66124;51.146;17.072;2023-05-28T06:05:10;100697.50;;;14.06;48.05
77153;BME280;66124;51.146;17.072;2023-05-28T06:07:40;100698.63;;;14.13;47.94
77153;BME280;66124;51.146;17.072;2023-05-28T06:10:10;100699.28;;;14.21;47.50
77153;BME280;66124;51.146;17.072;2023-05-28T06:12:40;100698.61;;;14.28;47.37
77153;BME280;66124;51.146;17.072;2023-05-28T06:15:10;100698.92;;;14.31;47.27
77153;BME280;66124;51.146;17.072;2023-05-28T06:17:40;100698.19;;;14.37;47.21
77153;BME280;66124;51.146;17.072;2023-05-28T06:20:10;100698.21;;;14.47;47.36
77153;BME280;66124;51.146;17.072;2023-05-28T06:22:40;100699.69;;;14.58;47.17
77153;BME280;66124;51.146;17.072;2023-05-28T06:25:09;100696.90;;;14.69;46.95
77153;BME280;66124;51.146;17.072;2023-05-28T06:27:37;100693.16;;;14.79;46.82
77153;BME280;66124;51.146;17.072;2023-05-28T06:30:06;100695.54;;;14.87;46.67
77153;BME280;66124;51.146;17.072;2023-05-28T06:40:10;100707.11;;;15.38;45.89
77153;BME280;66124;51.146;17.072;2023-05-28T06:42:39;100707.50;;;15.54;45.57
77153;BME280;66124;51.146;17.072;2023-05-28T06:45:10;100698.66;;;15.70;45.39
77153;BME280;66124;51.146;17.072;2023-05-28T06:47:39;100701.80;;;15.75;45.20
77153;BME280;66124;51.146;17.072;2023-05-28T06:50:10;100703.36;;;15.84;45.00
77153;BME280;66124;51.146;17.072;2023-05-28T06:52:39;100699.95;;;15.95;45.07
77153;BME280;66124;51.146;17.072;2023-05-28T06:55:10;100700.04;;;16.06;44.70
77153;BME280;66124;51.146;17.072;2023-05-28T06:57:39;100699.14;;;16.16;44.39
77153;BME280;66124;51.146;17.072;2023-05-28T07:00:10;100699.27;;;16.21;43.75
77153;BME280;66124;51.146;17.072;2023-05-28T07:02:40;100701.36;;;16.23;43.91
77153;BME280;66124;51.146;17.072;2023-05-28T07:05:10;100704.98;;;16.29;43.83
77153;BME280;66124;51.146;17.072;2023-05-28T07:07:39;100697.60;;;16.35;43.42
77153;BME280;66124;51.146;17.072;2023-05-28T07:10:10;100702.58;;;16.44;43.06
77153;BME280;66124;51.146;17.072;2023-05-28T07:12:39;100705.21;;;16.45;43.05
77153;BME280;66124;51.146;17.072;2023-05-28T07:15:10;100703.33;;;16.50;42.55
77153;BME280;66124;51.146;17.072;2023-05-28T07:17:39;100702.28;;;16.59;42.46
77153;BME280;66124;51.146;17.072;2023-05-28T07:20:10;100701.42;;;16.66;42.22
77153;BME280;66124;51.146;17.072;2023-05-28T07:22:39;100700.30;;;16.72;41.99
77153;BME280;66124;51.146;17.072;2023-05-28T07:25:10;100699.96;;;16.78;41.85
77153;BME280;66124;51.146;17.072;2023-05-28T07:27:39;100699.16;;;16.86;41.79
77153;BME280;66124;51.146;17.072;2023-05-28T07:30:11;100697.70;;;16.96;41.77
77153;BME280;66124;51.146;17.072;2023-05-28T07:32:40;100701.17;;;17.04;41.34
77153;BME280;66124;51.146;17.072;2023-05-28T07:35:09;100697.55;;;17.06;41.38
77153;BME280;66124;51.146;17.072;2023-05-28T07:37:39;100698.34;;;17.17;41.18
77153;BME280;66124;51.146;17.072;2023-05-28T07:40:09;100694.90;;;17.26;40.87
77153;BME280;66124;51.146;17.072;2023-05-28T07:42:39;100689.90;;;17.33;40.62
77153;BME280;66124;51.146;17.072;2023-05-28T07:45:09;100688.94;;;17.40;40.47
77153;BME280;66124;51.146;17.072;2023-05-28T07:47:39;100686.15;;;17.49;40.33
77153;BME280;66124;51.146;17.072;2023-05-28T07:50:10;100685.55;;;17.60;40.02
77153;BME280;66124;51.146;17.072;2023-05-28T07:52:37;100680.73;;;17.68;39.77
77153;BME280;66124;51.146;17.072;2023-05-28T07:57:57;100679.14;;;17.87;39.42
77153;BME280;66124;51.146;17.072;2023-05-28T08:00:27;100673.85;;;17.93;39.29
77153;BME280;66124;51.146;17.072;2023-05-28T08:02:56;100671.92;;;17.97;38.47
77153;BME280;66124;51.146;17.072;2023-05-28T08:05:26;100667.03;;;17.99;38.46
77153;BME280;66124;51.146;17.072;2023-05-28T08:07:55;100659.95;;;18.05;38.22
77153;BME280;66124;51.146;17.072;2023-05-28T08:10:26;100655.05;;;18.07;38.25
77153;BME280;66124;51.146;17.072;2023-05-28T08:12:55;100654.47;;;18.15;38.30
77153;BME280;66124;51.146;17.072;2023-05-28T08:15:25;100652.20;;;18.25;38.15
77153;BME280;66124;51.146;17.072;2023-05-28T08:17:54;100651.96;;;18.33;38.03
77153;BME280;66124;51.146;17.072;2023-05-28T08:20:24;100656.10;;;18.40;37.80
77153;BME280;66124;51.146;17.072;2023-05-28T08:22:53;100653.67;;;18.44;37.73
77153;BME280;66124;51.146;17.072;2023-05-28T08:25:23;100655.59;;;18.53;37.73
77153;BME280;66124;51.146;17.072;2023-05-28T08:27:52;100651.89;;;18.64;37.66
77153;BME280;66124;51.146;17.072;2023-05-28T08:30:22;100647.48;;;18.73;37.29
77153;BME280;66124;51.146;17.072;2023-05-28T08:32:51;100646.66;;;18.77;36.25
77153;BME280;66124;51.146;17.072;2023-05-28T08:35:21;100646.58;;;18.77;35.97
77153;BME280;66124;51.146;17.072;2023-05-28T08:37:50;100648.70;;;18.79;35.64
77153;BME280;66124;51.146;17.072;2023-05-28T08:40:19;100647.01;;;18.84;35.61
77153;BME280;66124;51.146;17.072;2023-05-28T08:42:49;100645.88;;;18.89;35.36
77153;BME280;66124;51.146;17.072;2023-05-28T08:45:18;100646.40;;;18.97;35.33
77153;BME280;66124;51.146;17.072;2023-05-28T08:47:49;100642.43;;;19.02;35.07
77153;BME280;66124;51.146;17.072;2023-05-28T08:50:19;100644.25;;;19.05;34.34
77153;BME280;66124;51.146;17.072;2023-05-28T08:52:49;100646.84;;;19.04;34.06
77153;BME280;66124;51.146;17.072;2023-05-28T08:55:20;100647.85;;;19.06;33.96
77153;BME280;66124;51.146;17.072;2023-05-28T08:57:49;100647.46;;;19.11;33.87
77153;BME280;66124;51.146;17.072;2023-05-28T09:00:21;100644.70;;;19.17;33.88
77153;BME280;66124;51.146;17.072;2023-05-28T09:02:51;100642.98;;;19.19;33.54
77153;BME280;66124;51.146;17.072;2023-05-28T09:05:21;100637.85;;;19.23;33.38
77153;BME280;66124;51.146;17.072;2023-05-28T09:07:49;100634.30;;;19.28;33.12
77153;BME280;66124;51.146;17.072;2023-05-28T09:10:17;100639.80;;;19.31;32.84
77153;BME280;66124;51.146;17.072;2023-05-28T09:17:59;100636.05;;;19.36;32.62
77153;BME280;66124;51.146;17.072;2023-05-28T09:20:26;100634.74;;;19.34;31.76
77153;BME280;66124;51.146;17.072;2023-05-28T09:23:01;100623.36;;;19.32;31.71
77153;BME280;66124;51.146;17.072;2023-05-28T09:25:33;100626.14;;;19.36;31.87
77153;BME280;66124;51.146;17.072;2023-05-28T09:28:01;100626.40;;;19.39;31.97
77153;BME280;66124;51.146;17.072;2023-05-28T09:30:33;100621.88;;;19.40;32.02
77153;BME280;66124;51.146;17.072;2023-05-28T09:33:04;100624.06;;;19.41;32.02
77153;BME280;66124;51.146;17.072;2023-05-28T09:35:32;100621.14;;;19.46;31.72
77153;BME280;66124;51.146;17.072;2023-05-28T09:37:59;100627.59;;;19.47;31.51
77153;BME280;66124;51.146;17.072;2023-05-28T09:42:37;100620.30;;;19.51;31.21
77153;BME280;66124;51.146;17.072;2023-05-28T09:45:09;100623.44;;;19.50;31.38
77153;BME280;66124;51.146;17.072;2023-05-28T09:47:44;100622.73;;;19.50;31.50
77153;BME280;66124;51.146;17.072;2023-05-28T09:50:14;100618.21;;;19.53;31.50
77153;BME280;66124;51.146;17.072;2023-05-28T09:52:45;100619.74;;;19.57;31.31
77153;BME280;66124;51.146;17.072;2023-05-28T09:55:17;100616.17;;;19.59;31.32
77153;BME280;66124;51.146;17.072;2023-05-28T09:57:50;100614.84;;;19.61;31.42
77153;BME280;66124;51.146;17.072;2023-05-28T10:00:25;100616.50;;;19.63;31.48
77153;BME280;66124;51.146;17.072;2023-05-28T10:03:05;100612.35;;;19.68;31.35
77153;BME280;66124;51.146;17.072;2023-05-28T10:05:35;100604.52;;;19.74;31.16
77153;BME280;66124;51.146;17.072;2023-05-28T10:08:06;100599.90;;;19.77;31.12
77153;BME280;66124;51.146;17.072;2023-05-28T10:10:36;100600.44;;;19.82;31.55
77153;BME280;66124;51.146;17.072;2023-05-28T10:13:08;100604.59;;;19.85;31.49
77153;BME280;66124;51.146;17.072;2023-05-28T10:15:37;100604.64;;;19.89;31.40
77153;BME280;66124;51.146;17.072;2023-05-28T10:18:08;100602.11;;;19.95;31.22
77153;BME280;66124;51.146;17.072;2023-05-28T10:20:39;100601.73;;;20.02;31.11
77153;BME280;66124;51.146;17.072;2023-05-28T10:23:08;100595.03;;;20.06;31.09
77153;BME280;66124;51.146;17.072;2023-05-28T10:25:41;100597.16;;;20.14;31.16
77153;BME280;66124;51.146;17.072;2023-05-28T10:28:15;100592.11;;;20.22;30.87
77153;BME280;66124;51.146;17.072;2023-05-28T10:30:44;100588.39;;;20.28;30.71
77153;BME280;66124;51.146;17.072;2023-05-28T10:33:17;100584.66;;;20.36;30.79
77153;BME280;66124;51.146;17.072;2023-05-28T10:35:58;100576.91;;;20.44;30.47
77153;BME280;66124;51.146;17.072;2023-05-28T10:38:28;100580.15;;;20.48;30.44
77153;BME280;66124;51.146;17.072;2023-05-28T10:41:02;100581.41;;;20.51;29.91
77153;BME280;66124;51.146;17.072;2023-05-28T10:43:45;100581.52;;;20.56;29.80
77153;BME280;66124;51.146;17.072;2023-05-28T10:46:17;100578.30;;;20.69;29.20
77153;BME280;66124;51.146;17.072;2023-05-28T10:49:06;100573.91;;;20.82;28.67
77153;BME280;66124;51.146;17.072;2023-05-28T10:51:51;100575.85;;;21.02;28.44
77153;BME280;66124;51.146;17.072;2023-05-28T10:58:27;100576.78;;;21.47;28.29
77153;BME280;66124;51.146;17.072;2023-05-28T11:01:02;100566.69;;;21.66;28.43
77153;BME280;66124;51.146;17.072;2023-05-28T11:03:42;100564.65;;;21.88;28.07
77153;BME280;66124;51.146;17.072;2023-05-28T11:06:13;100568.42;;;22.05;27.64
77153;BME280;66124;51.146;17.072;2023-05-28T11:08:46;100568.39;;;22.22;27.66
77153;BME280;66124;51.146;17.072;2023-05-28T11:11:17;100563.34;;;22.42;27.30
77153;BME280;66124;51.146;17.072;2023-05-28T11:13:48;100559.75;;;22.64;27.04
77153;BME280;66124;51.146;17.072;2023-05-28T11:16:17;100566.70;;;22.83;26.66
77153;BME280;66124;51.146;17.072;2023-05-28T11:19:04;100563.23;;;22.98;26.75
77153;BME280;66124;51.146;17.072;2023-05-28T11:21:33;100568.38;;;23.11;26.46
77153;BME280;66124;51.146;17.072;2023-05-28T11:24:04;100566.16;;;23.17;26.42
77153;BME280;66124;51.146;17.072;2023-05-28T11:26:32;100567.27;;;23.24;26.57
77153;BME280;66124;51.146;17.072;2023-05-28T11:29:02;100566.65;;;23.31;26.59
77153;BME280;66124;51.146;17.072;2023-05-28T11:31:38;100567.07;;;23.50;26.27
77153;BME280;66124;51.146;17.072;2023-05-28T11:34:08;100555.40;;;23.70;26.17
77153;BME280;66124;51.146;17.072;2023-05-28T11:36:42;100556.88;;;24.07;26.04
77153;BME280;66124;51.146;17.072;2023-05-28T11:39:11;100555.50;;;24.59;25.84
77153;BME280;66124;51.146;17.072;2023-05-28T11:41:41;100551.18;;;25.19;25.59
77153;BME280;66124;51.146;17.072;2023-05-28T11:44:23;100544.83;;;25.58;24.98
77153;BME280;66124;51.146;17.072;2023-05-28T11:46:54;100537.90;;;25.87;24.41
77153;BME280;66124;51.146;17.072;2023-05-28T11:49:24;100537.27;;;26.15;23.98
77153;BME280;66124;51.146;17.072;2023-05-28T11:51:54;100533.23;;;26.32;23.97
77153;BME280;66124;51.146;17.072;2023-05-28T11:54:23;100531.29;;;26.50;23.50
77153;BME280;66124;51.146;17.072;2023-05-28T11:56:53;100527.13;;;26.72;23.42
77153;BME280;66124;51.146;17.072;2023-05-28T11:59:23;100520.98;;;27.02;22.98
77153;BME280;66124;51.146;17.072;2023-05-28T12:01:52;100517.57;;;27.19;22.57
77153;BME280;66124;51.146;17.072;2023-05-28T12:04:24;100524.86;;;27.28;22.18
77153;BME280;66124;51.146;17.072;2023-05-28T12:06:55;100518.90;;;27.41;22.21
77153;BME280;66124;51.146;17.072;2023-05-28T12:09:23;100513.89;;;27.73;21.92
77153;BME280;66124;51.146;17.072;2023-05-28T12:17:27;100516.63;;;28.86;21.11
77153;BME280;66124;51.146;17.072;2023-05-28T12:20:02;100509.45;;;28.86;20.76
77153;BME280;66124;51.146;17.072;2023-05-28T12:22:32;100514.84;;;28.80;20.85
77153;BME280;66124;51.146;17.072;2023-05-28T12:25:02;100515.23;;;28.75;20.97
77153;BME280;66124;51.146;17.072;2023-05-28T12:27:32;100513.36;;;28.85;20.94
77153;BME280;66124;51.146;17.072;2023-05-28T12:30:01;100512.34;;;29.18;20.85
77153;BME280;66124;51.146;17.072;2023-05-28T12:32:31;100507.30;;;29.74;20.45
77153;BME280;66124;51.146;17.072;2023-05-28T12:35:01;100506.94;;;30.24;20.24
77153;BME280;66124;51.146;17.072;2023-05-28T12:37:30;100499.10;;;30.67;19.89
77153;BME280;66124;51.146;17.072;2023-05-28T12:40:00;100504.42;;;31.07;19.63
77153;BME280;66124;51.146;17.072;2023-05-28T12:42:29;100505.46;;;31.43;19.20
77153;BME280;66124;51.146;17.072;2023-05-28T12:44:58;100500.71;;;31.69;18.91
77153;BME280;66124;51.146;17.072;2023-05-28T12:47:28;100497.39;;;32.00;18.54
77153;BME280;66124;51.146;17.072;2023-05-28T12:49:57;100496.23;;;32.11;18.33
77153;BME280;66124;51.146;17.072;2023-05-28T12:52:27;100491.41;;;32.30;18.11
77153;BME280;66124;51.146;17.072;2023-05-28T12:54:56;100491.22;;;32.59;18.03
77153;BME280;66124;51.146;17.072;2023-05-28T12:57:26;100485.66;;;32.93;17.72
77153;BME280;66124;51.146;17.072;2023-05-28T12:59:57;100484.48;;;33.27;17.28
77153;BME280;66124;51.146;17.072;2023-05-28T13:02:27;100485.23;;;33.52;17.00
77153;BME280;66124;51.146;17.072;2023-05-28T13:04:56;100481.05;;;33.86;16.91
77153;BME280;66124;51.146;17.072;2023-05-28T13:07:26;100479.66;;;33.67;16.70
77153;BME280;66124;51.146;17.072;2023-05-28T13:09:55;100485.39;;;33.16;16.57
77153;BME280;66124;51.146;17.072;2023-05-28T13:12:24;100483.02;;;32.75;16.88
77153;BME280;66124;51.146;17.072;2023-05-28T13:14:54;100481.96;;;32.74;16.87
77153;BME280;66124;51.146;17.072;2023-05-28T13:17:23;100475.89;;;32.88;16.85
77153;BME280;66124;51.146;17.072;2023-05-28T13:19:52;100474.92;;;33.22;16.73
77153;BME280;66124;51.146;17.072;2023-05-28T13:22:22;100467.98;;;33.75;16.61
77153;BME280;66124;51.146;17.072;2023-05-28T13:24:51;100459.34;;;34.15;16.52
77153;BME280;66124;51.146;17.072;2023-05-28T13:27:21;100457.80;;;34.20;16.19
77153;BME280;66124;51.146;17.072;2023-05-28T13:29:49;100455.64;;;34.08;16.13
77153;BME280;66124;51.146;17.072;2023-05-28T13:37:43;100448.70;;;34.15;16.08
77153;BME280;66124;51.146;17.072;2023-05-28T13:40:13;100443.08;;;34.51;16.00
77153;BME280;66124;51.146;17.072;2023-05-28T13:42:43;100441.05;;;34.67;15.86
77153;BME280;66124;51.146;17.072;2023-05-28T13:45:13;100439.14;;;34.66;15.83
77153;BME280;66124;51.146;17.072;2023-05-28T13:47:43;100436.06;;;34.92;15.61
77153;BME280;66124;51.146;17.072;2023-05-28T13:50:12;100432.54;;;35.23;15.48
77153;BME280;66124;51.146;17.072;2023-05-28T13:52:44;100430.13;;;35.12;15.06
77153;BME280;66124;51.146;17.072;2023-05-28T13:55:13;100424.73;;;35.17;15.30
77153;BME280;66124;51.146;17.072;2023-05-28T13:57:43;100425.89;;;35.16;14.98
77153;BME280;66124;51.146;17.072;2023-05-28T14:00:14;100422.34;;;35.02;15.00
77153;BME280;66124;51.146;17.072;2023-05-28T14:02:43;100422.56;;;35.29;15.02
77153;BME280;66124;51.146;17.072;2023-05-28T14:05:13;100420.48;;;35.63;14.79